createdAt,value
2023-02-18T00:02:33.581Z,15.07
2023-02-18T00:05:35.867Z,13.45
2023-02-18T00:08:38.291Z,12.47
2023-02-18T00:11:40.626Z,11.77
2023-02-18T00:14:43.123Z,11.77
2023-02-18T00:17:45.414Z,11.45
2023-02-18T00:20:47.661Z,9.05
2023-02-18T00:23:50.200Z,10.50
2023-02-18T00:26:52.707Z,6.60
2023-02-18T00:29:55.238Z,7.13
2023-02-18T00:32:57.543Z,6.63
2023-02-18T00:36:10.996Z,10.07
2023-02-18T00:39:13.569Z,8.33
2023-02-18T00:42:16.300Z,5.30
2023-02-18T00:45:18.569Z,3.88
2023-02-18T00:48:21.134Z,7.82
2023-02-18T00:51:25.551Z,4.85
2023-02-18T00:54:27.875Z,5.43
2023-02-18T00:57:30.308Z,4.23
2023-02-18T01:00:32.738Z,5.10
2023-02-18T01:03:36.636Z,2.83
2023-02-18T01:06:39.185Z,4.85
2023-02-18T01:09:41.483Z,3.27
2023-02-18T01:12:43.796Z,2.80
2023-02-18T01:15:46.665Z,2.33
2023-02-18T01:18:49.104Z,6.25
2023-02-18T01:21:51.515Z,3.05
2023-02-18T01:24:53.848Z,1.77
2023-02-18T01:27:56.239Z,2.17
2023-02-18T01:30:58.613Z,1.55
2023-02-18T01:34:01.181Z,2.55
2023-02-18T01:37:04.806Z,1.25
2023-02-18T01:40:08.231Z,2.10
2023-02-18T01:43:12.172Z,1.10
2023-02-18T01:46:14.614Z,0.73
2023-02-18T01:49:33.226Z,0.70
2023-02-18T01:52:35.547Z,4.53
2023-02-18T01:55:39.367Z,5.40
2023-02-18T01:58:42.582Z,0.90
2023-02-18T02:01:46.046Z,0.88
2023-02-18T02:04:49.103Z,3.97
2023-02-18T02:07:52.875Z,1.50
2023-02-18T02:11:37.317Z,1.30
2023-02-18T02:15:17.041Z,1.10
2023-02-18T02:18:30.806Z,9.93
2023-02-18T02:21:51.588Z,6.97
2023-02-18T02:25:12.188Z,1.38
2023-02-18T02:28:38.923Z,3.13
2023-02-18T02:32:12.274Z,3.00
2023-02-18T02:35:25.495Z,3.28
2023-02-18T02:38:39.148Z,3.15
2023-02-18T02:41:47.399Z,1.08
2023-02-18T02:45:11.843Z,1.07
2023-02-18T02:48:14.173Z,0.70
2023-02-18T02:51:27.930Z,1.40
2023-02-18T02:54:32.534Z,1.45
2023-02-18T02:57:43.535Z,0.55
2023-02-18T03:01:15.389Z,0.60
2023-02-18T03:04:41.228Z,3.57
2023-02-18T03:07:57.098Z,2.38
2023-02-18T03:11:13.811Z,3.60
2023-02-18T03:14:35.575Z,0.60
2023-02-18T03:17:45.005Z,1.17
2023-02-18T03:20:54.205Z,4.60
2023-02-18T03:24:01.234Z,0.60
2023-02-18T03:27:13.180Z,0.68
2023-02-18T03:30:25.029Z,0.43
2023-02-18T03:33:38.319Z,2.00
2023-02-18T03:36:40.828Z,3.13
2023-02-18T03:39:46.969Z,3.15
2023-02-18T03:42:49.849Z,1.85
2023-02-18T03:45:52.574Z,0.60
2023-02-18T03:48:54.972Z,0.73
2023-02-18T03:51:57.285Z,1.03
2023-02-18T03:54:59.666Z,6.20
2023-02-18T03:58:01.958Z,1.88
2023-02-18T04:01:05.189Z,1.55
2023-02-18T04:04:07.559Z,0.73
2023-02-18T04:07:09.889Z,0.80
2023-02-18T04:10:12.477Z,0.93
2023-02-18T04:13:14.817Z,0.65
2023-02-18T04:16:17.421Z,0.93
2023-02-18T04:19:19.821Z,2.33
2023-02-18T04:22:22.140Z,1.63
2023-02-18T04:25:24.807Z,0.43
2023-02-18T04:28:27.202Z,0.35
2023-02-18T04:31:29.835Z,0.38
2023-02-18T04:34:34.158Z,1.00
2023-02-18T04:37:36.569Z,3.87
2023-02-18T04:40:38.890Z,1.50
2023-02-18T04:43:41.325Z,0.80
2023-02-18T04:46:43.761Z,0.90
2023-02-18T04:49:46.424Z,0.50
2023-02-18T04:52:49.115Z,2.10
2023-02-18T04:55:52.136Z,1.15
2023-02-18T04:58:54.382Z,2.13
2023-02-18T05:01:56.767Z,0.85
2023-02-18T05:04:59.336Z,0.40
2023-02-18T05:08:02.044Z,1.50
2023-02-18T05:11:09.011Z,1.17
2023-02-18T05:14:11.331Z,2.00
2023-02-18T05:17:15.709Z,0.95
2023-02-18T05:20:18.589Z,1.27
2023-02-18T05:23:21.501Z,0.57
2023-02-18T05:26:23.953Z,1.23
2023-02-18T05:29:26.319Z,0.50
2023-02-18T05:32:28.626Z,0.88
2023-02-18T05:35:30.877Z,1.10
2023-02-18T05:38:33.248Z,1.03
2023-02-18T05:41:35.594Z,0.35
2023-02-18T05:44:38.018Z,1.17
2023-02-18T05:47:40.363Z,0.38
2023-02-18T05:50:42.776Z,2.40
2023-02-18T05:53:45.378Z,1.13
2023-02-18T05:56:47.693Z,0.63
2023-02-18T05:59:50.215Z,1.40
2023-02-18T06:02:52.706Z,0.57
2023-02-18T06:05:55.240Z,1.97
2023-02-18T06:08:57.660Z,0.87
2023-02-18T06:12:00.138Z,1.02
2023-02-18T06:15:02.581Z,0.68
2023-02-18T06:18:05.884Z,0.40
2023-02-18T06:21:08.169Z,0.67
2023-02-18T06:24:10.858Z,1.73
2023-02-18T06:27:13.162Z,1.42
2023-02-18T06:30:15.696Z,0.77
2023-02-18T06:33:18.095Z,0.98
2023-02-18T06:36:20.469Z,0.57
2023-02-18T06:39:22.816Z,1.30
2023-02-18T06:42:25.118Z,0.88
2023-02-18T06:45:27.342Z,0.57
2023-02-18T06:48:30.011Z,1.05
2023-02-18T06:51:32.330Z,3.70
2023-02-18T06:54:34.761Z,0.77
2023-02-18T06:57:37.040Z,0.98
2023-02-18T07:00:40.028Z,1.17
2023-02-18T07:03:42.317Z,0.40
2023-02-18T07:06:44.590Z,0.83
2023-02-18T07:09:47.039Z,1.57
2023-02-18T07:12:49.370Z,0.80
2023-02-18T07:15:51.629Z,0.50
2023-02-18T07:18:54.414Z,1.00
2023-02-18T07:21:57.821Z,1.17
2023-02-18T07:25:00.258Z,0.80
2023-02-18T07:28:05.410Z,1.17
2023-02-18T07:31:09.334Z,1.15
2023-02-18T07:34:29.987Z,1.45
2023-02-18T07:37:37.788Z,0.43
2023-02-18T07:40:40.665Z,0.93
2023-02-18T07:43:43.076Z,1.95
2023-02-18T07:46:47.356Z,1.48
2023-02-18T07:49:50.624Z,0.40
2023-02-18T07:52:52.914Z,1.10
2023-02-18T07:55:55.323Z,0.50
2023-02-18T07:58:57.631Z,1.15
2023-02-18T08:02:00.185Z,0.98
2023-02-18T08:05:02.531Z,2.67
2023-02-18T08:08:05.123Z,2.20
2023-02-18T08:11:18.596Z,1.13
2023-02-18T08:14:21.699Z,1.25
2023-02-18T08:17:23.976Z,0.60
2023-02-18T08:20:27.052Z,1.40
2023-02-18T08:23:30.260Z,0.40
2023-02-18T08:26:32.586Z,0.93
2023-02-18T08:29:36.007Z,1.02
2023-02-18T08:32:38.486Z,0.60
2023-02-18T08:35:41.158Z,3.40
2023-02-18T08:38:43.759Z,1.47
2023-02-18T08:41:46.086Z,0.70
2023-02-18T08:44:48.404Z,1.55
2023-02-18T08:48:19.877Z,0.60
2023-02-18T08:51:15.723Z,2.17
2023-02-18T08:54:18.857Z,0.50
2023-02-18T08:57:21.168Z,0.50
2023-02-18T09:00:23.741Z,2.15
2023-02-18T09:03:27.077Z,0.40
2023-02-18T09:06:29.425Z,0.40
2023-02-18T09:09:32.223Z,2.10
2023-02-18T09:12:34.946Z,2.47
2023-02-18T09:15:37.552Z,0.45
2023-02-18T09:18:40.100Z,2.03
2023-02-18T09:21:42.547Z,0.68
2023-02-18T09:24:45.354Z,0.70
2023-02-18T09:27:47.549Z,0.83
2023-02-18T09:30:50.023Z,2.55
2023-02-18T09:33:54.882Z,0.47
2023-02-18T09:36:57.408Z,1.23
2023-02-18T09:40:00.225Z,1.57
2023-02-18T09:43:03.310Z,1.47
2023-02-18T09:46:31.920Z,0.45
2023-02-18T09:50:04.259Z,1.98
2023-02-18T09:53:06.915Z,0.38
2023-02-18T09:56:12.762Z,0.40
2023-02-18T09:59:20.689Z,0.70
2023-02-18T10:02:23.649Z,2.65
2023-02-18T10:05:28.483Z,0.40
2023-02-18T10:08:36.470Z,0.77
2023-02-18T10:11:42.029Z,0.70
2023-02-18T10:14:49.030Z,0.60
2023-02-18T10:17:51.613Z,0.45
2023-02-18T10:21:00.122Z,0.60
2023-02-18T10:24:28.709Z,1.38
2023-02-18T10:27:33.713Z,1.17
2023-02-18T10:30:38.520Z,1.20
2023-02-18T10:34:11.887Z,3.05
2023-02-18T10:37:26.247Z,0.32
2023-02-18T10:40:40.035Z,1.90
2023-02-18T10:43:45.467Z,1.83
2023-02-18T10:47:04.171Z,0.40
2023-02-18T10:50:13.325Z,0.35
2023-02-18T10:53:24.914Z,0.35
2023-02-18T10:56:30.374Z,1.98
2023-02-18T10:59:33.584Z,1.30
2023-02-18T11:02:35.930Z,1.50
2023-02-18T11:05:38.709Z,1.05
2023-02-18T11:08:44.366Z,1.00
2023-02-18T11:11:50.663Z,2.58
2023-02-18T11:15:17.776Z,0.50
2023-02-18T11:18:30.705Z,3.13
2023-02-18T11:21:37.937Z,1.42
2023-02-18T11:24:40.273Z,2.70
2023-02-18T11:27:45.202Z,2.13
2023-02-18T11:30:50.798Z,1.10
2023-02-18T11:33:57.353Z,2.73
2023-02-18T11:37:11.434Z,0.70
2023-02-18T11:40:33.115Z,0.50
2023-02-18T11:43:35.752Z,2.50
2023-02-18T11:46:38.227Z,2.30
2023-02-18T11:49:45.595Z,0.90
2023-02-18T11:52:50.044Z,0.70
2023-02-18T11:55:59.489Z,1.80
2023-02-18T11:59:03.689Z,3.22
2023-02-18T12:02:12.082Z,2.73
2023-02-18T12:05:20.330Z,3.50
2023-02-18T12:08:31.840Z,1.10
2023-02-18T12:11:39.824Z,2.40
2023-02-18T12:14:42.198Z,2.22
2023-02-18T12:17:47.697Z,1.83
2023-02-18T12:21:12.827Z,1.83
2023-02-18T12:24:42.942Z,1.50
2023-02-18T12:27:54.116Z,1.20
2023-02-18T12:31:15.304Z,1.10
2023-02-18T12:34:47.710Z,0.80
2023-02-18T12:38:15.786Z,0.57
2023-02-18T12:41:59.275Z,1.05
2023-02-18T12:45:13.612Z,0.88
2023-02-18T12:48:44.388Z,0.22
2023-02-18T12:51:46.655Z,2.00
2023-02-18T12:54:53.430Z,0.33
2023-02-18T12:58:06.703Z,1.13
2023-02-18T13:02:00.438Z,1.35
2023-02-18T13:05:40.453Z,0.40
2023-02-18T13:09:06.476Z,0.40
2023-02-18T13:12:27.391Z,1.33
2023-02-18T13:15:39.732Z,2.60
2023-02-18T13:18:49.525Z,0.90
2023-02-18T13:21:54.819Z,0.28
2023-02-18T13:24:59.724Z,1.17
2023-02-18T13:28:10.686Z,1.60
2023-02-18T13:31:25.379Z,1.98
2023-02-18T13:34:35.372Z,1.33
2023-02-18T13:37:40.343Z,2.25
2023-02-18T13:40:42.907Z,1.30
2023-02-18T13:43:47.687Z,0.53
2023-02-18T13:46:52.519Z,0.30
2023-02-18T13:49:54.955Z,0.63
2023-02-18T13:53:03.873Z,0.10
2023-02-18T13:56:25.089Z,0.23
2023-02-18T13:59:34.858Z,0.30
2023-02-18T14:02:37.255Z,0.63
2023-02-18T14:05:42.539Z,0.60
2023-02-18T14:08:46.874Z,0.43
2023-02-18T14:11:55.638Z,1.90
2023-02-18T14:14:58.906Z,0.33
2023-02-18T14:18:24.555Z,0.10
2023-02-18T14:21:39.168Z,1.33
2023-02-18T14:24:50.663Z,1.20
2023-02-18T14:27:54.076Z,0.50
2023-02-18T14:30:56.483Z,0.40
2023-02-18T14:34:23.695Z,1.70
2023-02-18T14:38:14.194Z,0.28
2023-02-18T14:41:33.068Z,1.33
2023-02-18T14:45:04.066Z,0.97
2023-02-18T14:48:17.859Z,0.43
2023-02-18T14:51:23.726Z,0.98
2023-02-18T14:54:27.707Z,0.28
2023-02-18T14:57:45.117Z,0.50
2023-02-18T15:00:47.415Z,17.67
2023-02-18T15:03:50.883Z,22.93
2023-02-18T15:07:02.747Z,26.25
2023-02-18T15:10:05.642Z,25.33
2023-02-18T15:13:13.837Z,23.77
2023-02-18T15:16:36.386Z,23.77
2023-02-18T15:19:52.258Z,24.73
2023-02-18T15:22:55.219Z,29.77
2023-02-18T15:25:58.501Z,29.17
2023-02-18T15:29:04.039Z,34.22
2023-02-18T15:32:16.912Z,29.83
2023-02-18T15:35:21.062Z,34.93
2023-02-18T15:38:23.438Z,32.38
2023-02-18T15:41:25.971Z,41.38
2023-02-18T15:44:30.396Z,32.30
2023-02-18T15:47:33.404Z,37.07
2023-02-18T15:50:38.072Z,35.53
2023-02-18T15:53:42.556Z,39.33
2023-02-18T15:56:47.009Z,43.95
2023-02-18T16:00:25.968Z,45.08
2023-02-18T16:03:31.276Z,43.57
2023-02-18T16:06:39.670Z,43.77
2023-02-18T16:09:42.083Z,42.40
2023-02-18T16:12:50.259Z,48.70
2023-02-18T16:15:53.734Z,50.20
2023-02-18T16:18:59.251Z,45.23
2023-02-18T16:22:06.676Z,48.40
2023-02-18T16:25:14.905Z,44.55
2023-02-18T16:28:29.373Z,46.13
2023-02-18T16:31:32.325Z,47.63
2023-02-18T16:34:36.080Z,48.87
2023-02-18T16:37:39.042Z,48.30
2023-02-18T16:40:41.510Z,50.42
2023-02-18T16:43:43.855Z,56.58
2023-02-18T16:46:46.381Z,50.60
2023-02-18T16:49:50.417Z,55.83
2023-02-18T16:52:52.714Z,56.47
2023-02-18T16:55:56.297Z,54.50
2023-02-18T16:58:58.564Z,56.25
2023-02-18T17:02:00.801Z,57.25
2023-02-18T17:05:03.307Z,61.10
2023-02-18T17:08:12.217Z,61.17
2023-02-18T17:11:30.050Z,63.60
2023-02-18T17:14:33.631Z,59.47
2023-02-18T17:17:35.934Z,60.42
2023-02-18T17:20:38.858Z,58.57
2023-02-18T17:23:41.995Z,71.20
2023-02-18T17:26:44.888Z,65.13
2023-02-18T17:29:47.289Z,63.83
2023-02-18T17:32:50.002Z,66.93
2023-02-18T17:35:52.332Z,65.63
2023-02-18T17:38:54.670Z,64.03
2023-02-18T17:41:57.074Z,60.15
2023-02-18T17:45:01.639Z,66.28
2023-02-18T17:48:04.310Z,66.55
2023-02-18T17:51:07.699Z,63.63
2023-02-18T17:54:17.290Z,70.33
2023-02-18T17:57:19.860Z,68.03
2023-02-18T18:00:32.319Z,63.47
2023-02-18T18:03:34.577Z,69.32
2023-02-18T18:06:37.053Z,72.00
2023-02-18T18:09:39.360Z,71.87
2023-02-18T18:12:42.763Z,66.25
2023-02-18T18:15:45.619Z,68.72
2023-02-18T18:18:48.106Z,60.72
2023-02-18T18:21:50.608Z,66.23
2023-02-18T18:24:53.025Z,62.77
2023-02-18T18:27:55.745Z,66.95
2023-02-18T18:30:58.306Z,61.92
2023-02-18T18:34:01.622Z,58.90
2023-02-18T18:37:04.156Z,68.97
2023-02-18T18:40:07.338Z,65.27
2023-02-18T18:43:19.707Z,64.45
2023-02-18T18:46:22.140Z,65.20
2023-02-18T18:49:24.791Z,66.20
2023-02-18T18:52:27.237Z,67.87
2023-02-18T18:55:37.113Z,60.23
2023-02-18T18:58:39.495Z,58.65
2023-02-18T19:01:41.955Z,63.63
2023-02-18T19:04:44.322Z,64.85
2023-02-18T19:07:48.060Z,72.10
2023-02-18T19:10:56.721Z,69.10
2023-02-18T19:13:59.149Z,68.75
2023-02-18T19:17:02.640Z,69.53
2023-02-18T19:20:05.457Z,73.80
2023-02-18T19:23:08.313Z,68.03
2023-02-18T19:26:10.670Z,66.43
2023-02-18T19:29:12.982Z,73.22
2023-02-18T19:32:15.282Z,69.35
2023-02-18T19:35:18.302Z,73.70
2023-02-18T19:38:20.866Z,72.70
2023-02-18T19:41:23.165Z,71.10
2023-02-18T19:44:25.464Z,67.10
2023-02-18T19:47:28.592Z,69.45
2023-02-18T19:50:31.351Z,71.53
2023-02-18T19:53:33.765Z,71.47
2023-02-18T19:56:36.044Z,65.20
2023-02-18T19:59:41.082Z,68.00
2023-02-18T20:02:46.030Z,67.40
2023-02-18T20:05:48.418Z,57.47
2023-02-18T20:08:51.509Z,68.50
2023-02-18T20:11:54.352Z,65.43
2023-02-18T20:14:56.735Z,54.05
2023-02-18T20:17:59.057Z,58.97
2023-02-18T20:21:01.406Z,55.60
2023-02-18T20:24:03.855Z,58.70
2023-02-18T20:27:07.410Z,50.67
2023-02-18T20:30:10.968Z,53.13
2023-02-18T20:33:13.376Z,44.65
2023-02-18T20:36:15.872Z,46.83
2023-02-18T20:39:19.113Z,49.90
2023-02-18T20:42:21.553Z,48.27
2023-02-18T20:45:24.030Z,44.90
2023-02-18T20:48:26.525Z,49.10
2023-02-18T20:51:28.980Z,49.50
2023-02-18T20:54:31.533Z,50.47
2023-02-18T20:57:33.967Z,49.57
2023-02-18T21:00:36.399Z,46.75
2023-02-18T21:03:39.152Z,47.40
2023-02-18T21:06:41.569Z,53.92
2023-02-18T21:09:44.007Z,51.93
2023-02-18T21:12:46.334Z,48.07
2023-02-18T21:15:49.294Z,53.78
2023-02-18T21:18:51.734Z,50.53
2023-02-18T21:21:54.126Z,48.58
2023-02-18T21:24:56.530Z,46.13
2023-02-18T21:27:58.800Z,49.33
2023-02-18T21:31:01.253Z,46.72
2023-02-18T21:34:05.387Z,44.22
2023-02-18T21:37:07.771Z,44.75
2023-02-18T21:40:10.478Z,49.77
2023-02-18T21:43:13.433Z,38.30
2023-02-18T21:46:24.215Z,39.47
2023-02-18T21:49:26.570Z,42.58
2023-02-18T21:52:29.027Z,32.75
2023-02-18T21:55:31.332Z,39.80
2023-02-18T21:58:33.633Z,35.30
2023-02-18T22:01:36.003Z,33.83
2023-02-18T22:04:38.531Z,27.83
2023-02-18T22:07:40.909Z,25.65
2023-02-18T22:10:43.369Z,21.93
2023-02-18T22:13:45.706Z,20.30
2023-02-18T22:16:48.106Z,19.63
2023-02-18T22:19:50.451Z,19.10
2023-02-18T22:22:53.780Z,13.32
2023-02-18T22:25:56.074Z,11.53
2023-02-18T22:28:59.710Z,6.03
2023-02-18T22:32:02.223Z,5.13
2023-02-18T22:35:04.902Z,4.10
2023-02-18T22:38:07.257Z,3.17
2023-02-18T22:41:14.044Z,3.47
2023-02-18T22:44:17.752Z,3.97
2023-02-18T22:47:20.085Z,3.90
2023-02-18T22:50:22.389Z,3.28
2023-02-18T22:53:25.268Z,4.53
2023-02-18T22:56:29.845Z,5.83
2023-02-18T22:59:32.205Z,3.43
2023-02-18T23:02:35.469Z,4.00
2023-02-18T23:05:37.943Z,3.38
2023-02-18T23:08:40.362Z,2.53
2023-02-18T23:11:43.524Z,3.67
2023-02-18T23:14:51.051Z,2.43
2023-02-18T23:17:53.494Z,3.17
2023-02-18T23:21:21.928Z,2.85
2023-02-18T23:24:24.409Z,1.90
2023-02-18T23:27:27.235Z,2.40
2023-02-18T23:30:29.964Z,2.63
2023-02-18T23:33:32.298Z,1.52
2023-02-18T23:36:35.751Z,3.70
2023-02-18T23:39:39.879Z,2.20
2023-02-18T23:42:42.254Z,1.93
2023-02-18T23:45:44.918Z,1.97
2023-02-18T23:48:47.454Z,2.45
2023-02-18T23:51:53.894Z,2.00
2023-02-18T23:54:56.312Z,1.73
2023-02-18T23:57:58.764Z,1.10
